High Force — 3FMA2 — position and weather

sailwx.info

Track history (hours):
 
Tides and Currents Weather Stations Pressure Air Temp Water Temp Dewpoint Dewpoint Depression Visibility Wind Speed Wind Dir Waves Ship Positions

High Force

Last reported at 2018-Feb-06 01:13 UTC. Time now 2018-Feb-21 11:52 UTC.
Position N 41°16' E 140°10'.
Warning: this ship's position is 15 days out of date.

Length 186 m; draft 10.1 m.

Type: Tanker. MMSI: 351838000.

Date/timePositionNaut miles runAvg speedWind from/ knotsBaromVisibWave heightAir tempDewpointWater temp
2018-Feb-06 01:13N 41°16' E 140°10'312.1
2018-Feb-06 01:00N 41°17' E 140°13'611.8
2018-Feb-06 00:30N 41°20' E 140°20'1212.2
2018-Feb-05 23:30N 41°28' E 140°33'1212.5
2018-Feb-05 22:30N 41°36' E 140°46'611.6
2018-Feb-05 22:00N 41°38' E 140°53'611.8
2018-Feb-05 21:30N 41°38' E 141°01'712.9
2018-Feb-05 21:00N 41°38' E 141°10'1413.8
2018-Feb-05 20:00N 41°38' E 141°28'  
Track history (hours):
 
Tides and Currents Weather Stations Pressure Air Temp Water Temp Dewpoint Dewpoint Depression Visibility Wind Speed Wind Dir Waves Ship Positions

High Force

Last reported at 2018-Feb-06 01:13 UTC. Time now 2018-Feb-21 11:52 UTC.
Position N 41°16' E 140°10'.
Warning: this ship's position is 15 days out of date.

Length 186 m; draft 10.1 m.

Type: Tanker. MMSI: 351838000.

Date/timePositionNaut miles runAvg speedWind from/ knotsBaromVisibWave heightAir tempDewpointWater temp
2018-Feb-06 01:13N 41°16' E 140°10'312.1
2018-Feb-06 01:00N 41°17' E 140°13'611.8
2018-Feb-06 00:30N 41°20' E 140°20'1212.2
2018-Feb-05 23:30N 41°28' E 140°33'1212.5
2018-Feb-05 22:30N 41°36' E 140°46'611.6
2018-Feb-05 22:00N 41°38' E 140°53'611.8
2018-Feb-05 21:30N 41°38' E 141°01'712.9
2018-Feb-05 21:00N 41°38' E 141°10'1413.8
2018-Feb-05 20:00N 41°38' E 141°28'  

Dump ship's entire track history